sensor_id;sensor_type;location;lat;lon;timestamp;P1;durP1;ratioP1;P2;durP2;ratioP2
1577;SDS011;57623;53.608;10.004;2023-03-14T00:00:05;3.97;;;3.33;;
1577;SDS011;57623;53.608;10.004;2023-03-14T00:02:37;4.17;;;3.27;;
1577;SDS011;57623;53.608;10.004;2023-03-14T00:05:06;4.07;;;3.00;;
1577;SDS011;57623;53.608;10.004;2023-03-14T00:07:35;3.43;;;3.00;;
1577;SDS011;57623;53.608;10.004;2023-03-14T00:10:06;4.10;;;3.33;;
1577;SDS011;57623;53.608;10.004;2023-03-14T00:12:36;6.93;;;3.40;;
1577;SDS011;57623;53.608;10.004;2023-03-14T00:15:05;3.70;;;3.17;;
1577;SDS011;57623;53.608;10.004;2023-03-14T00:17:34;6.97;;;3.43;;
1577;SDS011;57623;53.608;10.004;2023-03-14T00:20:05;4.40;;;3.30;;
1577;SDS011;57623;53.608;10.004;2023-03-14T00:22:37;5.20;;;4.13;;
1577;SDS011;57623;53.608;10.004;2023-03-14T00:25:06;6.87;;;4.03;;
1577;SDS011;57623;53.608;10.004;2023-03-14T00:27:36;5.93;;;3.63;;
1577;SDS011;57623;53.608;10.004;2023-03-14T00:30:04;5.27;;;3.70;;
1577;SDS011;57623;53.608;10.004;2023-03-14T00:32:34;5.00;;;3.47;;
1577;SDS011;57623;53.608;10.004;2023-03-14T00:35:03;4.93;;;3.27;;
1577;SDS011;57623;53.608;10.004;2023-03-14T00:37:32;6.40;;;3.40;;
1577;SDS011;57623;53.608;10.004;2023-03-14T00:40:00;5.57;;;3.90;;
1577;SDS011;57623;53.608;10.004;2023-03-14T00:42:31;3.97;;;3.00;;
1577;SDS011;57623;53.608;10.004;2023-03-14T00:44:59;7.70;;;3.07;;
1577;SDS011;57623;53.608;10.004;2023-03-14T00:47:27;6.97;;;3.67;;
1577;SDS011;57623;53.608;10.004;2023-03-14T00:49:55;5.37;;;2.90;;
1577;SDS011;57623;53.608;10.004;2023-03-14T00:52:24;7.80;;;3.50;;
1577;SDS011;57623;53.608;10.004;2023-03-14T00:54:52;4.90;;;3.20;;
1577;SDS011;57623;53.608;10.004;2023-03-14T00:57:20;5.50;;;3.53;;
1577;SDS011;57623;53.608;10.004;2023-03-14T00:59:48;6.13;;;3.00;;
1577;SDS011;57623;53.608;10.004;2023-03-14T01:02:17;5.73;;;3.20;;
1577;SDS011;57623;53.608;10.004;2023-03-14T01:04:47;3.47;;;3.00;;
1577;SDS011;57623;53.608;10.004;2023-03-14T01:07:15;7.37;;;3.23;;
1577;SDS011;57623;53.608;10.004;2023-03-14T01:09:44;6.00;;;3.17;;
1577;SDS011;57623;53.608;10.004;2023-03-14T01:12:12;8.60;;;3.33;;
1577;SDS011;57623;53.608;10.004;2023-03-14T01:14:40;7.67;;;3.10;;
1577;SDS011;57623;53.608;10.004;2023-03-14T01:17:08;4.83;;;2.60;;
1577;SDS011;57623;53.608;10.004;2023-03-14T01:19:36;6.63;;;4.00;;
1577;SDS011;57623;53.608;10.004;2023-03-14T01:22:04;8.43;;;3.60;;
1577;SDS011;57623;53.608;10.004;2023-03-14T01:24:32;7.17;;;3.67;;
1577;SDS011;57623;53.608;10.004;2023-03-14T01:27:02;4.93;;;3.43;;
1577;SDS011;57623;53.608;10.004;2023-03-14T01:29:30;7.37;;;3.20;;
1577;SDS011;57623;53.608;10.004;2023-03-14T01:31:58;6.10;;;3.27;;
1577;SDS011;57623;53.608;10.004;2023-03-14T01:34:26;6.40;;;3.93;;
1577;SDS011;57623;53.608;10.004;2023-03-14T01:36:54;8.77;;;3.20;;
1577;SDS011;57623;53.608;10.004;2023-03-14T01:39:22;8.77;;;3.53;;
1577;SDS011;57623;53.608;10.004;2023-03-14T01:41:49;6.90;;;4.60;;
1577;SDS011;57623;53.608;10.004;2023-03-14T01:44:19;6.00;;;3.83;;
1577;SDS011;57623;53.608;10.004;2023-03-14T01:46:47;4.03;;;2.93;;
1577;SDS011;57623;53.608;10.004;2023-03-14T01:49:17;4.30;;;2.73;;
1577;SDS011;57623;53.608;10.004;2023-03-14T01:51:50;5.70;;;3.60;;
1577;SDS011;57623;53.608;10.004;2023-03-14T01:54:25;4.23;;;3.37;;
1577;SDS011;57623;53.608;10.004;2023-03-14T01:56:57;5.83;;;2.87;;
1577;SDS011;57623;53.608;10.004;2023-03-14T01:59:31;4.40;;;3.20;;
1577;SDS011;57623;53.608;10.004;2023-03-14T02:02:02;6.50;;;3.33;;
1577;SDS011;57623;53.608;10.004;2023-03-14T02:04:34;4.57;;;3.87;;
1577;SDS011;57623;53.608;10.004;2023-03-14T02:07:04;5.63;;;3.03;;
1577;SDS011;57623;53.608;10.004;2023-03-14T02:09:36;4.37;;;3.20;;
1577;SDS011;57623;53.608;10.004;2023-03-14T02:12:06;10.70;;;3.83;;
1577;SDS011;57623;53.608;10.004;2023-03-14T02:14:37;3.90;;;3.10;;
1577;SDS011;57623;53.608;10.004;2023-03-14T02:17:06;5.73;;;3.63;;
1577;SDS011;57623;53.608;10.004;2023-03-14T02:19:46;4.30;;;3.33;;
1577;SDS011;57623;53.608;10.004;2023-03-14T02:22:25;4.03;;;3.63;;
1577;SDS011;57623;53.608;10.004;2023-03-14T02:24:55;7.53;;;3.03;;
1577;SDS011;57623;53.608;10.004;2023-03-14T02:27:30;4.97;;;3.73;;
1577;SDS011;57623;53.608;10.004;2023-03-14T02:29:58;5.87;;;3.90;;
1577;SDS011;57623;53.608;10.004;2023-03-14T02:32:29;5.27;;;3.30;;
1577;SDS011;57623;53.608;10.004;2023-03-14T02:35:01;5.80;;;3.40;;
1577;SDS011;57623;53.608;10.004;2023-03-14T02:37:35;8.40;;;3.80;;
1577;SDS011;57623;53.608;10.004;2023-03-14T02:40:08;6.13;;;4.20;;
1577;SDS011;57623;53.608;10.004;2023-03-14T02:42:38;6.57;;;3.97;;
1577;SDS011;57623;53.608;10.004;2023-03-14T02:45:29;5.67;;;3.37;;
1577;SDS011;57623;53.608;10.004;2023-03-14T02:48:06;5.50;;;4.17;;
1577;SDS011;57623;53.608;10.004;2023-03-14T02:50:38;5.50;;;3.93;;
1577;SDS011;57623;53.608;10.004;2023-03-14T02:53:06;4.67;;;3.43;;
1577;SDS011;57623;53.608;10.004;2023-03-14T02:55:34;5.10;;;4.33;;
1577;SDS011;57623;53.608;10.004;2023-03-14T02:58:04;4.53;;;4.13;;
1577;SDS011;57623;53.608;10.004;2023-03-14T03:00:32;5.50;;;4.40;;
1577;SDS011;57623;53.608;10.004;2023-03-14T03:03:01;4.07;;;3.67;;
1577;SDS011;57623;53.608;10.004;2023-03-14T03:05:33;4.13;;;3.63;;
1577;SDS011;57623;53.608;10.004;2023-03-14T03:08:01;5.53;;;4.47;;
1577;SDS011;57623;53.608;10.004;2023-03-14T03:10:29;6.07;;;3.70;;
1577;SDS011;57623;53.608;10.004;2023-03-14T03:12:58;7.40;;;4.20;;
1577;SDS011;57623;53.608;10.004;2023-03-14T03:15:27;4.93;;;3.97;;
1577;SDS011;57623;53.608;10.004;2023-03-14T03:17:55;6.87;;;3.87;;
1577;SDS011;57623;53.608;10.004;2023-03-14T03:20:23;6.97;;;4.43;;
1577;SDS011;57623;53.608;10.004;2023-03-14T03:22:51;7.73;;;4.00;;
1577;SDS011;57623;53.608;10.004;2023-03-14T03:25:19;4.67;;;4.27;;
1577;SDS011;57623;53.608;10.004;2023-03-14T03:27:47;6.47;;;4.40;;
1577;SDS011;57623;53.608;10.004;2023-03-14T03:30:15;5.57;;;4.23;;
1577;SDS011;57623;53.608;10.004;2023-03-14T03:32:45;5.57;;;4.40;;
1577;SDS011;57623;53.608;10.004;2023-03-14T03:35:13;7.67;;;4.00;;
1577;SDS011;57623;53.608;10.004;2023-03-14T03:37:41;5.83;;;4.00;;
1577;SDS011;57623;53.608;10.004;2023-03-14T03:40:10;9.23;;;5.40;;
1577;SDS011;57623;53.608;10.004;2023-03-14T03:42:38;5.47;;;3.80;;
1577;SDS011;57623;53.608;10.004;2023-03-14T03:45:06;4.23;;;3.77;;
1577;SDS011;57623;53.608;10.004;2023-03-14T03:47:35;4.17;;;3.60;;
1577;SDS011;57623;53.608;10.004;2023-03-14T03:50:05;4.00;;;3.60;;
1577;SDS011;57623;53.608;10.004;2023-03-14T03:52:33;4.93;;;4.07;;
1577;SDS011;57623;53.608;10.004;2023-03-14T03:55:02;4.77;;;3.70;;
1577;SDS011;57623;53.608;10.004;2023-03-14T03:57:30;4.03;;;3.63;;
1577;SDS011;57623;53.608;10.004;2023-03-14T03:59:58;6.23;;;3.87;;
1577;SDS011;57623;53.608;10.004;2023-03-14T04:02:26;5.40;;;3.70;;
1577;SDS011;57623;53.608;10.004;2023-03-14T04:04:54;7.10;;;3.50;;
1577;SDS011;57623;53.608;10.004;2023-03-14T04:07:24;5.20;;;4.10;;
1577;SDS011;57623;53.608;10.004;2023-03-14T04:09:52;6.73;;;3.90;;
1577;SDS011;57623;53.608;10.004;2023-03-14T04:12:20;5.33;;;3.80;;
1577;SDS011;57623;53.608;10.004;2023-03-14T04:14:48;5.83;;;3.60;;
1577;SDS011;57623;53.608;10.004;2023-03-14T04:17:16;6.13;;;3.77;;
1577;SDS011;57623;53.608;10.004;2023-03-14T04:19:45;6.50;;;3.63;;
1577;SDS011;57623;53.608;10.004;2023-03-14T04:22:15;6.73;;;3.80;;
1577;SDS011;57623;53.608;10.004;2023-03-14T04:24:45;4.63;;;3.73;;
1577;SDS011;57623;53.608;10.004;2023-03-14T04:27:13;5.40;;;4.20;;
1577;SDS011;57623;53.608;10.004;2023-03-14T04:29:41;6.10;;;3.67;;
1577;SDS011;57623;53.608;10.004;2023-03-14T04:32:10;4.50;;;3.50;;
1577;SDS011;57623;53.608;10.004;2023-03-14T04:34:38;4.80;;;3.97;;
1577;SDS011;57623;53.608;10.004;2023-03-14T04:37:06;4.10;;;3.70;;
1577;SDS011;57623;53.608;10.004;2023-03-14T04:39:34;8.27;;;4.00;;
1577;SDS011;57623;53.608;10.004;2023-03-14T04:42:03;5.73;;;4.23;;
1577;SDS011;57623;53.608;10.004;2023-03-14T04:44:32;4.90;;;3.80;;
1577;SDS011;57623;53.608;10.004;2023-03-14T04:47:00;4.80;;;4.00;;
1577;SDS011;57623;53.608;10.004;2023-03-14T04:49:27;4.37;;;3.97;;
1577;SDS011;57623;53.608;10.004;2023-03-14T04:51:55;6.90;;;4.20;;
1577;SDS011;57623;53.608;10.004;2023-03-14T04:54:23;6.20;;;3.90;;
1577;SDS011;57623;53.608;10.004;2023-03-14T04:56:51;7.77;;;4.80;;
1577;SDS011;57623;53.608;10.004;2023-03-14T04:59:21;4.80;;;4.40;;
1577;SDS011;57623;53.608;10.004;2023-03-14T05:01:49;4.97;;;4.43;;
1577;SDS011;57623;53.608;10.004;2023-03-14T05:04:17;4.10;;;3.70;;
1577;SDS011;57623;53.608;10.004;2023-03-14T05:06:45;3.90;;;2.43;;
1577;SDS011;57623;53.608;10.004;2023-03-14T05:09:13;4.13;;;2.30;;
1577;SDS011;57623;53.608;10.004;2023-03-14T05:11:41;2.70;;;2.20;;
1577;SDS011;57623;53.608;10.004;2023-03-14T05:14:09;3.50;;;2.27;;
1577;SDS011;57623;53.608;10.004;2023-03-14T05:16:38;9.10;;;2.73;;
1577;SDS011;57623;53.608;10.004;2023-03-14T05:19:06;3.50;;;2.30;;
1577;SDS011;57623;53.608;10.004;2023-03-14T05:21:34;3.17;;;2.40;;
1577;SDS011;57623;53.608;10.004;2023-03-14T05:24:02;3.37;;;2.40;;
1577;SDS011;57623;53.608;10.004;2023-03-14T05:26:31;2.63;;;2.43;;
1577;SDS011;57623;53.608;10.004;2023-03-14T05:28:59;2.80;;;2.53;;
1577;SDS011;57623;53.608;10.004;2023-03-14T05:31:27;2.97;;;2.67;;
1577;SDS011;57623;53.608;10.004;2023-03-14T05:33:56;3.10;;;2.63;;
1577;SDS011;57623;53.608;10.004;2023-03-14T05:36:24;2.67;;;2.20;;
1577;SDS011;57623;53.608;10.004;2023-03-14T05:38:52;4.87;;;2.70;;
1577;SDS011;57623;53.608;10.004;2023-03-14T05:41:20;3.03;;;2.60;;
1577;SDS011;57623;53.608;10.004;2023-03-14T05:43:48;4.00;;;2.80;;
1577;SDS011;57623;53.608;10.004;2023-03-14T05:46:16;3.93;;;3.10;;
1577;SDS011;57623;53.608;10.004;2023-03-14T05:48:44;4.30;;;3.67;;
1577;SDS011;57623;53.608;10.004;2023-03-14T05:51:13;3.73;;;3.43;;
1577;SDS011;57623;53.608;10.004;2023-03-14T05:53:41;4.10;;;3.50;;
1577;SDS011;57623;53.608;10.004;2023-03-14T05:56:09;4.70;;;3.53;;
1577;SDS011;57623;53.608;10.004;2023-03-14T05:58:37;4.37;;;3.20;;
1577;SDS011;57623;53.608;10.004;2023-03-14T06:01:05;4.00;;;3.70;;
1577;SDS011;57623;53.608;10.004;2023-03-14T06:03:34;4.60;;;3.77;;
1577;SDS011;57623;53.608;10.004;2023-03-14T06:06:03;5.50;;;4.10;;
1577;SDS011;57623;53.608;10.004;2023-03-14T06:08:32;4.80;;;4.40;;
1577;SDS011;57623;53.608;10.004;2023-03-14T06:11:02;5.80;;;4.73;;
1577;SDS011;57623;53.608;10.004;2023-03-14T06:13:31;7.40;;;4.87;;
1577;SDS011;57623;53.608;10.004;2023-03-14T06:15:59;6.20;;;5.17;;
1577;SDS011;57623;53.608;10.004;2023-03-14T06:18:27;7.77;;;5.60;;
1577;SDS011;57623;53.608;10.004;2023-03-14T06:20:55;5.23;;;4.80;;
1577;SDS011;57623;53.608;10.004;2023-03-14T06:23:23;9.03;;;6.00;;
1577;SDS011;57623;53.608;10.004;2023-03-14T06:25:53;8.60;;;6.30;;
1577;SDS011;57623;53.608;10.004;2023-03-14T06:28:20;6.20;;;5.53;;
1577;SDS011;57623;53.608;10.004;2023-03-14T06:30:51;6.50;;;5.90;;
1577;SDS011;57623;53.608;10.004;2023-03-14T06:33:19;6.93;;;6.07;;
1577;SDS011;57623;53.608;10.004;2023-03-14T06:35:47;7.57;;;5.80;;
1577;SDS011;57623;53.608;10.004;2023-03-14T06:38:15;7.10;;;5.53;;
1577;SDS011;57623;53.608;10.004;2023-03-14T06:40:43;7.53;;;5.40;;
1577;SDS011;57623;53.608;10.004;2023-03-14T06:43:12;8.03;;;6.03;;
1577;SDS011;57623;53.608;10.004;2023-03-14T06:45:40;7.20;;;6.30;;
1577;SDS011;57623;53.608;10.004;2023-03-14T06:48:08;8.10;;;5.70;;
1577;SDS011;57623;53.608;10.004;2023-03-14T06:50:36;6.33;;;5.57;;
1577;SDS011;57623;53.608;10.004;2023-03-14T06:53:04;7.93;;;6.03;;
1577;SDS011;57623;53.608;10.004;2023-03-14T06:55:32;7.17;;;6.47;;
1577;SDS011;57623;53.608;10.004;2023-03-14T06:58:00;6.30;;;5.73;;
1577;SDS011;57623;53.608;10.004;2023-03-14T07:00:29;7.07;;;4.90;;
1577;SDS011;57623;53.608;10.004;2023-03-14T07:02:57;6.07;;;5.57;;
1577;SDS011;57623;53.608;10.004;2023-03-14T07:05:25;7.47;;;5.90;;
1577;SDS011;57623;53.608;10.004;2023-03-14T07:07:53;6.17;;;5.20;;
1577;SDS011;57623;53.608;10.004;2023-03-14T07:10:21;6.40;;;4.67;;
1577;SDS011;57623;53.608;10.004;2023-03-14T07:12:49;6.97;;;4.30;;
1577;SDS011;57623;53.608;10.004;2023-03-14T07:15:18;6.20;;;4.33;;
1577;SDS011;57623;53.608;10.004;2023-03-14T07:17:48;5.43;;;4.90;;
1577;SDS011;57623;53.608;10.004;2023-03-14T07:20:16;6.73;;;3.37;;
1577;SDS011;57623;53.608;10.004;2023-03-14T07:22:46;6.17;;;3.60;;
1577;SDS011;57623;53.608;10.004;2023-03-14T07:25:15;6.97;;;3.70;;
1577;SDS011;57623;53.608;10.004;2023-03-14T07:27:43;6.10;;;3.10;;
1577;SDS011;57623;53.608;10.004;2023-03-14T07:30:12;3.93;;;2.90;;
1577;SDS011;57623;53.608;10.004;2023-03-14T07:32:41;6.60;;;2.97;;
1577;SDS011;57623;53.608;10.004;2023-03-14T07:35:10;3.20;;;2.80;;
1577;SDS011;57623;53.608;10.004;2023-03-14T07:37:38;4.37;;;2.90;;
1577;SDS011;57623;53.608;10.004;2023-03-14T07:40:06;6.40;;;2.60;;
1577;SDS011;57623;53.608;10.004;2023-03-14T07:42:36;3.90;;;2.87;;
1577;SDS011;57623;53.608;10.004;2023-03-14T07:45:05;4.70;;;3.17;;
1577;SDS011;57623;53.608;10.004;2023-03-14T07:47:34;5.10;;;3.67;;
1577;SDS011;57623;53.608;10.004;2023-03-14T07:50:02;3.90;;;3.50;;
1577;SDS011;57623;53.608;10.004;2023-03-14T07:52:32;4.53;;;3.47;;
1577;SDS011;57623;53.608;10.004;2023-03-14T07:55:00;5.77;;;3.73;;
1577;SDS011;57623;53.608;10.004;2023-03-14T07:57:29;5.57;;;3.80;;
1577;SDS011;57623;53.608;10.004;2023-03-14T07:59:57;4.77;;;3.43;;
1577;SDS011;57623;53.608;10.004;2023-03-14T08:02:25;4.93;;;2.90;;
1577;SDS011;57623;53.608;10.004;2023-03-14T08:04:53;3.10;;;2.90;;
1577;SDS011;57623;53.608;10.004;2023-03-14T08:07:21;7.43;;;2.47;;
1577;SDS011;57623;53.608;10.004;2023-03-14T08:09:50;3.40;;;2.40;;
1577;SDS011;57623;53.608;10.004;2023-03-14T08:12:18;3.87;;;2.60;;
1577;SDS011;57623;53.608;10.004;2023-03-14T08:14:46;3.80;;;2.60;;
1577;SDS011;57623;53.608;10.004;2023-03-14T08:17:14;3.40;;;1.93;;
1577;SDS011;57623;53.608;10.004;2023-03-14T08:19:42;2.27;;;1.80;;
1577;SDS011;57623;53.608;10.004;2023-03-14T08:22:10;3.43;;;2.57;;
1577;SDS011;57623;53.608;10.004;2023-03-14T08:24:38;4.47;;;2.53;;
1577;SDS011;57623;53.608;10.004;2023-03-14T08:27:08;2.97;;;2.40;;
1577;SDS011;57623;53.608;10.004;2023-03-14T08:29:36;3.33;;;2.20;;
1577;SDS011;57623;53.608;10.004;2023-03-14T08:32:04;3.80;;;2.50;;
1577;SDS011;57623;53.608;10.004;2023-03-14T08:34:32;2.87;;;2.40;;
1577;SDS011;57623;53.608;10.004;2023-03-14T08:37:01;4.50;;;2.50;;
1577;SDS011;57623;53.608;10.004;2023-03-14T08:39:36;4.37;;;2.60;;
1577;SDS011;57623;53.608;10.004;2023-03-14T08:42:04;2.40;;;2.20;;
1577;SDS011;57623;53.608;10.004;2023-03-14T08:44:33;4.77;;;2.23;;
1577;SDS011;57623;53.608;10.004;2023-03-14T08:47:01;6.83;;;2.90;;
1577;SDS011;57623;53.608;10.004;2023-03-14T08:49:29;3.27;;;2.90;;
1577;SDS011;57623;53.608;10.004;2023-03-14T08:51:57;3.40;;;2.83;;
1577;SDS011;57623;53.608;10.004;2023-03-14T08:54:25;4.90;;;3.27;;
1577;SDS011;57623;53.608;10.004;2023-03-14T08:56:53;5.10;;;3.80;;
1577;SDS011;57623;53.608;10.004;2023-03-14T08:59:21;4.43;;;3.00;;
1577;SDS011;57623;53.608;10.004;2023-03-14T09:01:51;4.77;;;3.40;;
1577;SDS011;57623;53.608;10.004;2023-03-14T09:04:20;3.90;;;3.60;;
1577;SDS011;57623;53.608;10.004;2023-03-14T09:06:49;3.60;;;3.40;;
1577;SDS011;57623;53.608;10.004;2023-03-14T09:09:17;4.70;;;4.17;;
1577;SDS011;57623;53.608;10.004;2023-03-14T09:11:45;9.53;;;4.30;;
1577;SDS011;57623;53.608;10.004;2023-03-14T09:14:13;5.67;;;4.23;;
1577;SDS011;57623;53.608;10.004;2023-03-14T09:16:41;6.60;;;4.40;;
1577;SDS011;57623;53.608;10.004;2023-03-14T09:19:10;6.33;;;4.33;;
1577;SDS011;57623;53.608;10.004;2023-03-14T09:21:38;8.50;;;4.50;;
1577;SDS011;57623;53.608;10.004;2023-03-14T09:24:06;7.00;;;4.53;;
1577;SDS011;57623;53.608;10.004;2023-03-14T09:26:34;7.03;;;4.20;;
1577;SDS011;57623;53.608;10.004;2023-03-14T09:29:02;5.37;;;4.60;;
1577;SDS011;57623;53.608;10.004;2023-03-14T09:31:30;6.37;;;4.63;;
1577;SDS011;57623;53.608;10.004;2023-03-14T09:33:58;5.63;;;4.13;;
1577;SDS011;57623;53.608;10.004;2023-03-14T09:36:28;5.77;;;4.90;;
1577;SDS011;57623;53.608;10.004;2023-03-14T09:38:58;6.07;;;4.70;;
1577;SDS011;57623;53.608;10.004;2023-03-14T09:41:27;6.57;;;4.40;;
1577;SDS011;57623;53.608;10.004;2023-03-14T09:44:00;6.67;;;4.80;;
1577;SDS011;57623;53.608;10.004;2023-03-14T09:46:32;5.33;;;4.40;;
1577;SDS011;57623;53.608;10.004;2023-03-14T09:49:05;6.70;;;4.27;;
1577;SDS011;57623;53.608;10.004;2023-03-14T09:51:40;4.83;;;4.03;;
1577;SDS011;57623;53.608;10.004;2023-03-14T09:54:11;6.20;;;2.90;;
1577;SDS011;57623;53.608;10.004;2023-03-14T09:56:54;2.87;;;1.60;;
1577;SDS011;57623;53.608;10.004;2023-03-14T09:59:22;2.50;;;1.10;;
1577;SDS011;57623;53.608;10.004;2023-03-14T10:01:50;1.20;;;1.10;;
1577;SDS011;57623;53.608;10.004;2023-03-14T10:04:20;4.07;;;1.13;;
1577;SDS011;57623;53.608;10.004;2023-03-14T10:06:51;1.10;;;1.00;;
1577;SDS011;57623;53.608;10.004;2023-03-14T10:09:20;1.97;;;1.20;;
1577;SDS011;57623;53.608;10.004;2023-03-14T10:11:53;2.90;;;1.70;;
1577;SDS011;57623;53.608;10.004;2023-03-14T10:14:29;2.03;;;1.27;;
1577;SDS011;57623;53.608;10.004;2023-03-14T10:17:06;2.40;;;1.30;;
1577;SDS011;57623;53.608;10.004;2023-03-14T10:19:36;2.27;;;1.37;;
1577;SDS011;57623;53.608;10.004;2023-03-14T10:22:10;0.93;;;0.90;;
1577;SDS011;57623;53.608;10.004;2023-03-14T10:24:45;0.97;;;0.93;;
1577;SDS011;57623;53.608;10.004;2023-03-14T10:27:19;1.07;;;1.00;;
1577;SDS011;57623;53.608;10.004;2023-03-14T10:29:52;3.33;;;1.10;;
1577;SDS011;57623;53.608;10.004;2023-03-14T10:32:28;1.83;;;0.90;;
1577;SDS011;57623;53.608;10.004;2023-03-14T10:35:04;0.63;;;0.60;;
1577;SDS011;57623;53.608;10.004;2023-03-14T10:37:42;0.50;;;0.50;;
1577;SDS011;57623;53.608;10.004;2023-03-14T10:40:18;0.73;;;0.60;;
1577;SDS011;57623;53.608;10.004;2023-03-14T10:42:46;1.23;;;0.60;;
1577;SDS011;57623;53.608;10.004;2023-03-14T10:45:25;1.17;;;0.67;;
1577;SDS011;57623;53.608;10.004;2023-03-14T10:47:58;1.13;;;0.73;;
1577;SDS011;57623;53.608;10.004;2023-03-14T10:50:33;0.80;;;0.50;;
1577;SDS011;57623;53.608;10.004;2023-03-14T10:53:03;1.37;;;0.50;;
1577;SDS011;57623;53.608;10.004;2023-03-14T10:55:39;1.63;;;0.70;;
1577;SDS011;57623;53.608;10.004;2023-03-14T10:58:18;0.70;;;0.63;;
1577;SDS011;57623;53.608;10.004;2023-03-14T11:00:50;2.60;;;0.70;;
1577;SDS011;57623;53.608;10.004;2023-03-14T11:03:25;0.80;;;0.70;;
1577;SDS011;57623;53.608;10.004;2023-03-14T11:05:57;0.90;;;0.50;;
1577;SDS011;57623;53.608;10.004;2023-03-14T11:08:33;0.63;;;0.60;;
1577;SDS011;57623;53.608;10.004;2023-03-14T11:11:09;1.43;;;0.90;;
1577;SDS011;57623;53.608;10.004;2023-03-14T11:13:44;0.97;;;0.70;;
1577;SDS011;57623;53.608;10.004;2023-03-14T11:16:22;0.73;;;0.70;;
1577;SDS011;57623;53.608;10.004;2023-03-14T11:19:10;1.53;;;0.50;;
1577;SDS011;57623;53.608;10.004;2023-03-14T11:21:47;2.27;;;0.60;;
1577;SDS011;57623;53.608;10.004;2023-03-14T11:24:35;0.90;;;0.70;;
1577;SDS011;57623;53.608;10.004;2023-03-14T11:27:15;1.40;;;0.80;;
1577;SDS011;57623;53.608;10.004;2023-03-14T11:29:48;2.03;;;0.60;;
1577;SDS011;57623;53.608;10.004;2023-03-14T11:32:30;1.47;;;0.80;;
1577;SDS011;57623;53.608;10.004;2023-03-14T11:35:04;0.80;;;0.60;;
1577;SDS011;57623;53.608;10.004;2023-03-14T11:37:45;1.10;;;0.90;;
1577;SDS011;57623;53.608;10.004;2023-03-14T11:40:21;2.70;;;1.13;;
1577;SDS011;57623;53.608;10.004;2023-03-14T11:42:53;4.60;;;1.20;;
1577;SDS011;57623;53.608;10.004;2023-03-14T11:45:29;1.67;;;0.90;;
1577;SDS011;57623;53.608;10.004;2023-03-14T11:48:12;0.87;;;0.80;;
1577;SDS011;57623;53.608;10.004;2023-03-14T11:50:46;1.83;;;1.10;;
1577;SDS011;57623;53.608;10.004;2023-03-14T11:53:18;2.50;;;0.80;;
1577;SDS011;57623;53.608;10.004;2023-03-14T11:55:51;2.27;;;1.23;;
1577;SDS011;57623;53.608;10.004;2023-03-14T11:58:20;2.47;;;1.20;;
1577;SDS011;57623;53.608;10.004;2023-03-14T12:00:53;4.33;;;1.40;;
1577;SDS011;57623;53.608;10.004;2023-03-14T12:03:24;2.43;;;1.13;;
1577;SDS011;57623;53.608;10.004;2023-03-14T12:06:02;2.63;;;1.20;;
1577;SDS011;57623;53.608;10.004;2023-03-14T12:08:39;3.43;;;1.20;;
1577;SDS011;57623;53.608;10.004;2023-03-14T12:11:19;3.67;;;0.90;;
1577;SDS011;57623;53.608;10.004;2023-03-14T12:13:52;6.57;;;1.63;;
1577;SDS011;57623;53.608;10.004;2023-03-14T12:16:30;4.53;;;1.30;;
1577;SDS011;57623;53.608;10.004;2023-03-14T12:19:13;5.97;;;1.20;;
1577;SDS011;57623;53.608;10.004;2023-03-14T12:22:07;1.93;;;0.90;;
1577;SDS011;57623;53.608;10.004;2023-03-14T12:24:45;4.03;;;1.70;;
1577;SDS011;57623;53.608;10.004;2023-03-14T12:39:00;3.60;;;1.40;;
1577;SDS011;57623;53.608;10.004;2023-03-14T12:41:41;4.23;;;1.30;;
1577;SDS011;57623;53.608;10.004;2023-03-14T12:50:14;5.07;;;1.50;;
1577;SDS011;57623;53.608;10.004;2023-03-14T12:52:51;6.80;;;2.03;;
1577;SDS011;57623;53.608;10.004;2023-03-14T12:55:38;4.20;;;1.60;;
1577;SDS011;57623;53.608;10.004;2023-03-14T12:58:15;6.17;;;1.90;;
1577;SDS011;57623;53.608;10.004;2023-03-14T13:00:54;7.87;;;2.67;;
1577;SDS011;57623;53.608;10.004;2023-03-14T13:03:24;3.40;;;1.50;;
1577;SDS011;57623;53.608;10.004;2023-03-14T13:05:56;4.80;;;1.77;;
1577;SDS011;57623;53.608;10.004;2023-03-14T13:08:35;4.10;;;1.70;;
1577;SDS011;57623;53.608;10.004;2023-03-14T13:11:07;4.17;;;1.43;;
1577;SDS011;57623;53.608;10.004;2023-03-14T13:13:40;7.33;;;1.90;;
1577;SDS011;57623;53.608;10.004;2023-03-14T13:16:14;4.63;;;2.10;;
1577;SDS011;57623;53.608;10.004;2023-03-14T13:18:44;7.63;;;2.30;;
1577;SDS011;57623;53.608;10.004;2023-03-14T13:21:15;7.73;;;2.00;;
1577;SDS011;57623;53.608;10.004;2023-03-14T13:23:56;9.60;;;3.27;;
1577;SDS011;57623;53.608;10.004;2023-03-14T13:26:32;5.97;;;2.10;;
1577;SDS011;57623;53.608;10.004;2023-03-14T13:29:08;6.27;;;2.10;;
1577;SDS011;57623;53.608;10.004;2023-03-14T13:31:38;7.33;;;3.00;;
1577;SDS011;57623;53.608;10.004;2023-03-14T13:34:11;5.33;;;1.90;;
1577;SDS011;57623;53.608;10.004;2023-03-14T13:36:40;5.43;;;2.00;;
1577;SDS011;57623;53.608;10.004;2023-03-14T13:39:09;7.13;;;2.00;;
1577;SDS011;57623;53.608;10.004;2023-03-14T13:41:39;8.43;;;1.80;;
1577;SDS011;57623;53.608;10.004;2023-03-14T13:44:13;3.83;;;1.40;;
1577;SDS011;57623;53.608;10.004;2023-03-14T13:46:45;3.87;;;1.30;;
1577;SDS011;57623;53.608;10.004;2023-03-14T13:49:16;4.30;;;1.50;;
1577;SDS011;57623;53.608;10.004;2023-03-14T13:51:48;5.40;;;1.60;;
1577;SDS011;57623;53.608;10.004;2023-03-14T13:54:17;5.17;;;1.40;;
1577;SDS011;57623;53.608;10.004;2023-03-14T13:56:47;6.63;;;1.67;;
1577;SDS011;57623;53.608;10.004;2023-03-14T13:59:22;6.53;;;2.40;;
1577;SDS011;57623;53.608;10.004;2023-03-14T14:01:52;6.47;;;1.83;;
1577;SDS011;57623;53.608;10.004;2023-03-14T14:04:21;7.23;;;1.70;;
1577;SDS011;57623;53.608;10.004;2023-03-14T14:06:52;4.90;;;2.23;;
1577;SDS011;57623;53.608;10.004;2023-03-14T14:09:23;8.43;;;1.80;;
1577;SDS011;57623;53.608;10.004;2023-03-14T14:11:53;9.00;;;1.57;;
1577;SDS011;57623;53.608;10.004;2023-03-14T14:14:41;5.33;;;1.43;;
1577;SDS011;57623;53.608;10.004;2023-03-14T14:17:14;5.13;;;1.40;;
1577;SDS011;57623;53.608;10.004;2023-03-14T14:19:45;3.07;;;1.40;;
1577;SDS011;57623;53.608;10.004;2023-03-14T14:22:14;7.23;;;1.70;;
1577;SDS011;57623;53.608;10.004;2023-03-14T14:24:43;5.20;;;1.90;;
1577;SDS011;57623;53.608;10.004;2023-03-14T14:27:13;8.30;;;1.73;;
1577;SDS011;57623;53.608;10.004;2023-03-14T14:29:43;5.00;;;1.70;;
1577;SDS011;57623;53.608;10.004;2023-03-14T14:32:12;5.90;;;1.80;;
1577;SDS011;57623;53.608;10.004;2023-03-14T14:34:43;3.70;;;1.70;;
1577;SDS011;57623;53.608;10.004;2023-03-14T14:37:17;9.30;;;1.87;;
1577;SDS011;57623;53.608;10.004;2023-03-14T14:39:53;7.10;;;1.50;;
1577;SDS011;57623;53.608;10.004;2023-03-14T14:42:24;2.93;;;1.60;;
1577;SDS011;57623;53.608;10.004;2023-03-14T14:44:55;2.80;;;1.40;;
1577;SDS011;57623;53.608;10.004;2023-03-14T14:47:25;7.53;;;2.30;;
1577;SDS011;57623;53.608;10.004;2023-03-14T14:49:58;5.77;;;1.50;;
1577;SDS011;57623;53.608;10.004;2023-03-14T14:52:33;2.47;;;1.23;;
1577;SDS011;57623;53.608;10.004;2023-03-14T14:55:13;3.77;;;1.40;;
1577;SDS011;57623;53.608;10.004;2023-03-14T14:57:48;2.47;;;1.20;;
1577;SDS011;57623;53.608;10.004;2023-03-14T15:00:19;6.90;;;1.73;;
1577;SDS011;57623;53.608;10.004;2023-03-14T15:02:50;5.70;;;1.90;;
1577;SDS011;57623;53.608;10.004;2023-03-14T15:05:22;7.40;;;2.10;;
1577;SDS011;57623;53.608;10.004;2023-03-14T15:07:51;5.70;;;1.97;;
1577;SDS011;57623;53.608;10.004;2023-03-14T15:10:21;5.50;;;1.77;;
1577;SDS011;57623;53.608;10.004;2023-03-14T15:12:51;3.13;;;1.23;;
1577;SDS011;57623;53.608;10.004;2023-03-14T15:15:19;3.63;;;1.80;;
1577;SDS011;57623;53.608;10.004;2023-03-14T15:17:47;5.77;;;2.07;;
1577;SDS011;57623;53.608;10.004;2023-03-14T15:20:17;6.47;;;1.97;;
1577;SDS011;57623;53.608;10.004;2023-03-14T15:22:49;5.97;;;2.03;;
1577;SDS011;57623;53.608;10.004;2023-03-14T15:25:17;6.23;;;1.70;;